Time;durP1;ratioP1;P1;durP2;ratioP2;P2;SDS_P1;SDS_P2;PMS_P1;PMS_P2;Temp;Humidity;BMP_temperature;BMP_pressure;BME280_temperature;BME280_humidity;BME280_pressure;Samples;Min_cycle;Max_cycle;Signal;HPM_P1;HPM_P2
2023/06/21 00:00:14;;;;;;;1.08;0.63;;;;;;;;;;5009616;28;20017;-68
2023/06/21 00:02:40;;;;;;;0.65;0.47;;;;;;;;;;5012785;28;20030;-72
2023/06/21 00:05:06;;;;;;;0.40;0.30;;;;;;;;;;5009355;28;20484;-72
2023/06/21 00:07:31;;;;;;;0.75;0.65;;;;;;;;;;5011024;28;20104;-73
2023/06/21 00:09:57;;;;;;;2.63;1.05;;;;;;;;;;5003550;28;20462;-73
2023/06/21 00:12:22;;;;;;;1.10;0.52;;;;;;;;;;5010396;28;20104;-73
2023/06/21 00:14:47;;;;;;;1.58;0.68;;;;;;;;;;5010817;28;20037;-73
2023/06/21 00:17:13;;;;;;;1.30;0.80;;;;;;;;;;5009811;28;20549;-73
2023/06/21 00:19:39;;;;;;;0.82;0.65;;;;;;;;;;5011384;28;20025;-73
2023/06/21 00:22:04;;;;;;;1.60;0.77;;;;;;;;;;5010997;28;20069;-73
2023/06/21 00:24:30;;;;;;;0.60;0.40;;;;;;;;;;5012039;28;20507;-72
2023/06/21 00:26:56;;;;;;;2.08;0.88;;;;;;;;;;5012072;28;20460;-73
2023/06/21 00:29:21;;;;;;;2.05;1.02;;;;;;;;;;5012001;28;20057;-72
2023/06/21 00:31:47;;;;;;;0.75;0.55;;;;;;;;;;5011540;28;20053;-72
2023/06/21 00:34:12;;;;;;;1.42;0.85;;;;;;;;;;5013133;28;20034;-73
2023/06/21 00:36:41;;;;;;;2.25;0.80;;;;;;;;;;5012642;28;20068;-73
2023/06/21 00:39:07;;;;;;;1.85;0.90;;;;;;;;;;5009603;28;20105;-73
2023/06/21 00:41:32;;;;;;;0.60;0.52;;;;;;;;;;5012994;28;20108;-73
2023/06/21 00:43:58;;;;;;;1.05;0.70;;;;;;;;;;5009925;28;20057;-72
2023/06/21 00:46:23;;;;;;;0.63;0.43;;;;;;;;;;5013578;28;20022;-72
2023/06/21 00:48:49;;;;;;;1.15;0.65;;;;;;;;;;5012846;28;20464;-72
2023/06/21 00:51:14;;;;;;;1.08;0.80;;;;;;;;;;5013135;28;20060;-73
2023/06/21 00:53:40;;;;;;;1.67;0.95;;;;;;;;;;5014193;28;20022;-72
2023/06/21 00:56:06;;;;;;;2.80;0.88;;;;;;;;;;5013659;28;20029;-72
2023/06/21 00:58:32;;;;;;;1.30;0.73;;;;;;;;;;5013287;28;20080;-72
2023/06/21 01:04:00;;;;;;;2.70;1.35;;;;;;;;;;5018637;23;20080;-67
2023/06/21 01:06:48;;;;;;;2.90;1.58;;;;;;;;;;5011951;28;20030;-69
2023/06/21 01:09:49;;;;;;;2.92;1.00;;;;;;;;;;5012566;28;20072;-69
2023/06/21 01:12:34;;;;;;;1.83;1.02;;;;;;;;;;4970999;28;20026;-69
2023/06/21 01:15:02;;;;;;;1.65;1.13;;;;;;;;;;4966211;28;20515;-69
2023/06/21 01:17:28;;;;;;;2.90;1.08;;;;;;;;;;4969003;28;20038;-69
2023/06/21 01:19:57;;;;;;;1.55;1.00;;;;;;;;;;4968183;28;20396;-68
2023/06/21 01:22:22;;;;;;;2.70;1.10;;;;;;;;;;4970682;28;20382;-69
2023/06/21 01:24:57;;;;;;;2.40;0.95;;;;;;;;;;4968538;28;21118;-69
2023/06/21 01:27:52;;;;;;;3.53;1.48;;;;;;;;;;4971259;28;20039;-69
2023/06/21 01:30:18;;;;;;;2.17;1.30;;;;;;;;;;4918565;28;20040;-68
2023/06/21 01:32:44;;;;;;;3.60;1.67;;;;;;;;;;4967711;28;20110;-68
2023/06/21 01:35:09;;;;;;;1.90;1.10;;;;;;;;;;4968034;28;20106;-69
2023/06/21 01:37:35;;;;;;;4.13;2.65;;;;;;;;;;4969821;28;20017;-68
2023/06/21 01:40:00;;;;;;;6.53;1.15;;;;;;;;;;4969855;28;20097;-68
2023/06/21 01:42:25;;;;;;;2.35;1.15;;;;;;;;;;4972065;28;20089;-68
2023/06/21 01:44:51;;;;;;;3.50;1.25;;;;;;;;;;4970663;28;20509;-69
2023/06/21 01:47:17;;;;;;;4.22;1.27;;;;;;;;;;5008814;28;20507;-68
2023/06/21 01:49:43;;;;;;;2.13;0.80;;;;;;;;;;5007216;28;20018;-69
2023/06/21 01:52:09;;;;;;;2.88;1.80;;;;;;;;;;5006533;28;20022;-69
2023/06/21 01:54:34;;;;;;;2.03;1.33;;;;;;;;;;5013033;28;20101;-69
2023/06/21 01:57:00;;;;;;;3.90;1.17;;;;;;;;;;5011387;28;20014;-69
2023/06/21 01:59:30;;;;;;;3.17;1.27;;;;;;;;;;5008321;28;20034;-69
2023/06/21 02:01:57;;;;;;;3.67;1.13;;;;;;;;;;5009874;28;20087;-69
2023/06/21 02:04:23;;;;;;;2.25;1.30;;;;;;;;;;4985938;28;20050;-69
2023/06/21 02:06:50;;;;;;;3.10;1.45;;;;;;;;;;4975821;28;20029;-69
2023/06/21 02:09:15;;;;;;;2.20;1.25;;;;;;;;;;4987115;28;20599;-69
2023/06/21 02:11:41;;;;;;;1.85;1.10;;;;;;;;;;4979200;28;20098;-69
2023/06/21 02:14:07;;;;;;;1.83;1.05;;;;;;;;;;4977912;28;20041;-69
2023/06/21 02:16:32;;;;;;;8.50;1.38;;;;;;;;;;4990686;28;20022;-69
2023/06/21 02:18:58;;;;;;;3.65;1.25;;;;;;;;;;4991965;28;20015;-70
2023/06/21 02:21:23;;;;;;;1.85;1.30;;;;;;;;;;4991832;28;20014;-69
2023/06/21 02:23:49;;;;;;;2.25;1.10;;;;;;;;;;4992344;28;20025;-69
2023/06/21 02:26:14;;;;;;;1.17;0.95;;;;;;;;;;4976349;28;20031;-70
2023/06/21 02:28:41;;;;;;;2.55;1.30;;;;;;;;;;4993686;28;20029;-69
2023/06/21 02:31:06;;;;;;;3.88;1.90;;;;;;;;;;4994282;28;20050;-69
2023/06/21 02:33:31;;;;;;;1.63;0.93;;;;;;;;;;4978365;28;20116;-69
2023/06/21 02:35:57;;;;;;;1.33;0.77;;;;;;;;;;4993427;28;20026;-69
2023/06/21 02:38:25;;;;;;;3.92;1.92;;;;;;;;;;4991488;28;20034;-70
2023/06/21 02:40:50;;;;;;;2.05;1.13;;;;;;;;;;4993224;28;20033;-70
2023/06/21 02:43:15;;;;;;;1.77;1.05;;;;;;;;;;4993418;28;20018;-70
2023/06/21 02:45:40;;;;;;;1.95;0.98;;;;;;;;;;4993945;28;20412;-71
2023/06/21 02:48:06;;;;;;;2.80;1.42;;;;;;;;;;4994035;28;20106;-70
2023/06/21 02:50:31;;;;;;;2.03;1.40;;;;;;;;;;4992761;28;20483;-70
2023/06/21 02:52:57;;;;;;;1.90;1.40;;;;;;;;;;4993953;28;20045;-70
2023/06/21 02:55:22;;;;;;;2.03;1.23;;;;;;;;;;4993378;28;20050;-69
2023/06/21 02:57:48;;;;;;;1.48;1.02;;;;;;;;;;4992921;28;20057;-69
2023/06/21 03:00:22;;;;;;;2.38;1.05;;;;;;;;;;4992975;28;20101;-69
2023/06/21 03:02:49;;;;;;;2.20;1.25;;;;;;;;;;4991160;28;20046;-69
2023/06/21 03:05:14;;;;;;;24.15;13.88;;;;;;;;;;4993259;28;20061;-68
2023/06/21 03:07:43;;;;;;;32.72;21.42;;;;;;;;;;4993931;28;20049;-68
2023/06/21 03:10:12;;;;;;;37.50;23.50;;;;;;;;;;4993090;28;20487;-68
2023/06/21 03:12:41;;;;;;;38.35;23.75;;;;;;;;;;4992586;28;20464;-68
2023/06/21 03:15:07;;;;;;;38.95;23.48;;;;;;;;;;4991022;28;20029;-68
2023/06/21 03:17:33;;;;;;;42.60;25.67;;;;;;;;;;4992216;28;20018;-69
2023/06/21 03:19:58;;;;;;;46.22;26.17;;;;;;;;;;4992557;28;20041;-68
2023/06/21 03:22:23;;;;;;;46.45;25.88;;;;;;;;;;4991507;28;20034;-68
2023/06/21 03:24:48;;;;;;;45.30;26.50;;;;;;;;;;4989273;28;20097;-69
2023/06/21 03:27:14;;;;;;;48.42;27.80;;;;;;;;;;4990170;28;20019;-68
2023/06/21 03:29:39;;;;;;;50.17;27.73;;;;;;;;;;4986226;28;20480;-68
2023/06/21 03:32:04;;;;;;;51.50;28.85;;;;;;;;;;4987522;28;20052;-68
2023/06/21 03:34:30;;;;;;;52.13;28.75;;;;;;;;;;4990063;28;20022;-68
2023/06/21 03:36:55;;;;;;;53.67;29.50;;;;;;;;;;4987757;28;20500;-69
2023/06/21 03:39:20;;;;;;;50.88;28.00;;;;;;;;;;4992707;28;20395;-68
2023/06/21 03:41:45;;;;;;;54.35;28.58;;;;;;;;;;4993085;28;20031;-68
2023/06/21 03:44:11;;;;;;;58.83;30.15;;;;;;;;;;4990966;28;20097;-68
2023/06/21 03:46:36;;;;;;;57.60;30.33;;;;;;;;;;4990994;28;20033;-69
2023/06/21 03:49:01;;;;;;;55.90;31.02;;;;;;;;;;4993501;28;20499;-68
2023/06/21 03:51:27;;;;;;;56.30;29.48;;;;;;;;;;4987407;28;20026;-68
2023/06/21 03:53:52;;;;;;;60.60;31.17;;;;;;;;;;4975405;28;20026;-69
2023/06/21 03:56:18;;;;;;;58.17;29.63;;;;;;;;;;4988870;28;20026;-69
2023/06/21 03:58:43;;;;;;;59.58;29.98;;;;;;;;;;4992853;28;20026;-69
2023/06/21 04:01:08;;;;;;;64.57;30.83;;;;;;;;;;4993791;28;20030;-69
2023/06/21 04:03:33;;;;;;;62.80;31.40;;;;;;;;;;4993434;28;20046;-69
2023/06/21 04:05:59;;;;;;;60.60;30.80;;;;;;;;;;4996510;28;20072;-69
2023/06/21 04:08:24;;;;;;;61.22;31.23;;;;;;;;;;4996313;28;20507;-68
2023/06/21 04:10:49;;;;;;;71.15;32.42;;;;;;;;;;4995359;28;20107;-69
2023/06/21 04:13:15;;;;;;;64.63;32.03;;;;;;;;;;4995719;28;20014;-68
2023/06/21 04:15:40;;;;;;;59.08;29.52;;;;;;;;;;4996721;28;20457;-68
2023/06/21 04:18:05;;;;;;;55.80;30.10;;;;;;;;;;4995657;28;20023;-68
2023/06/21 04:20:30;;;;;;;63.03;29.85;;;;;;;;;;4995345;28;20027;-69
2023/06/21 04:22:57;;;;;;;60.30;30.70;;;;;;;;;;4992370;28;20037;-68
2023/06/21 04:25:22;;;;;;;65.35;32.78;;;;;;;;;;4994436;28;20026;-68
2023/06/21 04:27:47;;;;;;;60.85;35.03;;;;;;;;;;4992599;28;20495;-68
2023/06/21 04:30:13;;;;;;;59.10;34.95;;;;;;;;;;4994228;28;20034;-69
2023/06/21 04:32:44;;;;;;;58.92;30.95;;;;;;;;;;4995399;28;20022;-69
2023/06/21 04:35:10;;;;;;;55.10;31.83;;;;;;;;;;4996571;28;20014;-68
2023/06/21 04:37:37;;;;;;;56.95;33.60;;;;;;;;;;4996424;28;20095;-69
2023/06/21 04:40:03;;;;;;;59.28;33.75;;;;;;;;;;4993896;28;20072;-69
2023/06/21 04:42:28;;;;;;;56.80;33.90;;;;;;;;;;4994352;28;20373;-69
2023/06/21 04:44:54;;;;;;;59.90;33.92;;;;;;;;;;4993445;28;20057;-69
2023/06/21 04:47:20;;;;;;;66.72;35.47;;;;;;;;;;4991356;28;20018;-69
2023/06/21 04:49:45;;;;;;;62.97;34.42;;;;;;;;;;4994718;28;20149;-69
2023/06/21 04:52:12;;;;;;;59.78;35.42;;;;;;;;;;4995025;28;20042;-70
2023/06/21 04:54:37;;;;;;;57.67;32.28;;;;;;;;;;4991108;28;20036;-69
2023/06/21 04:57:07;;;;;;;54.95;32.65;;;;;;;;;;4994357;28;20026;-68
2023/06/21 04:59:32;;;;;;;49.30;31.58;;;;;;;;;;4993155;28;20030;-68
2023/06/21 05:01:57;;;;;;;44.13;28.90;;;;;;;;;;4993957;28;20077;-68
2023/06/21 05:04:23;;;;;;;40.85;28.40;;;;;;;;;;4992838;28;20121;-69
2023/06/21 05:06:48;;;;;;;36.20;25.05;;;;;;;;;;4994785;28;20050;-68
2023/06/21 05:09:13;;;;;;;35.47;25.58;;;;;;;;;;4995050;28;20026;-68
2023/06/21 05:11:39;;;;;;;40.17;25.85;;;;;;;;;;4994943;28;20458;-68
2023/06/21 05:14:22;;;;;;;32.95;24.67;;;;;;;;;;4992176;28;20024;-68
2023/06/21 05:16:47;;;;;;;34.35;24.15;;;;;;;;;;4995478;28;20053;-68
2023/06/21 05:19:12;;;;;;;28.23;19.33;;;;;;;;;;4995593;28;20018;-69
2023/06/21 05:21:38;;;;;;;29.23;20.40;;;;;;;;;;4993512;28;20483;-68
2023/06/21 05:24:03;;;;;;;29.58;21.08;;;;;;;;;;4994172;28;20018;-69
2023/06/21 05:26:29;;;;;;;27.88;20.63;;;;;;;;;;4979374;28;20380;-68
2023/06/21 05:28:54;;;;;;;25.02;18.95;;;;;;;;;;4993802;28;20023;-66
2023/06/21 05:31:19;;;;;;;25.58;18.90;;;;;;;;;;4995201;28;20030;-68
2023/06/21 05:33:44;;;;;;;29.50;20.48;;;;;;;;;;4995393;28;20025;-68
2023/06/21 05:36:10;;;;;;;26.05;20.00;;;;;;;;;;4993358;28;20137;-68
2023/06/21 05:38:35;;;;;;;26.73;18.83;;;;;;;;;;4993467;28;20033;-68
2023/06/21 05:41:00;;;;;;;27.15;19.02;;;;;;;;;;4994264;28;20111;-68
2023/06/21 05:43:26;;;;;;;25.75;19.08;;;;;;;;;;4990680;28;20392;-68
2023/06/21 05:45:51;;;;;;;22.38;17.83;;;;;;;;;;4993637;28;20018;-67
2023/06/21 05:48:17;;;;;;;22.92;17.65;;;;;;;;;;4992534;28;20031;-66
2023/06/21 05:50:42;;;;;;;21.30;16.60;;;;;;;;;;4995175;28;20108;-66
2023/06/21 05:53:07;;;;;;;22.17;16.02;;;;;;;;;;4993212;28;20026;-67
2023/06/21 05:55:33;;;;;;;19.38;15.15;;;;;;;;;;4992029;28;20026;-66
2023/06/21 05:57:58;;;;;;;20.13;14.27;;;;;;;;;;4994913;28;20026;-66
2023/06/21 06:00:23;;;;;;;17.23;14.30;;;;;;;;;;4980324;28;20107;-65
2023/06/21 06:02:49;;;;;;;17.08;13.38;;;;;;;;;;4991667;28;20497;-65
2023/06/21 06:05:14;;;;;;;16.48;12.50;;;;;;;;;;4989182;28;20436;-65
2023/06/21 06:07:39;;;;;;;21.15;13.02;;;;;;;;;;4993531;28;20396;-65
2023/06/21 06:10:05;;;;;;;19.42;12.23;;;;;;;;;;4992253;28;20014;-65
2023/06/21 06:12:30;;;;;;;16.08;11.23;;;;;;;;;;4993103;28;20398;-65
2023/06/21 06:14:56;;;;;;;15.95;12.05;;;;;;;;;;4992863;28;20056;-65
2023/06/21 06:17:21;;;;;;;14.82;11.30;;;;;;;;;;4993765;28;20041;-66
2023/06/21 06:19:46;;;;;;;15.75;12.52;;;;;;;;;;4993606;28;20033;-66
2023/06/21 06:22:12;;;;;;;17.23;13.48;;;;;;;;;;4994235;28;20424;-66
2023/06/21 06:24:37;;;;;;;18.83;13.13;;;;;;;;;;4993354;28;20026;-66
2023/06/21 06:27:03;;;;;;;15.85;12.68;;;;;;;;;;4994054;28;20026;-66
2023/06/21 06:29:28;;;;;;;18.40;13.20;;;;;;;;;;4993372;28;20022;-66
2023/06/21 06:31:53;;;;;;;16.17;12.95;;;;;;;;;;4994434;28;20052;-66
2023/06/21 06:34:19;;;;;;;19.25;14.05;;;;;;;;;;4993340;28;20476;-67
2023/06/21 06:36:44;;;;;;;18.10;12.52;;;;;;;;;;4993129;28;20030;-66
2023/06/21 06:39:10;;;;;;;18.50;13.30;;;;;;;;;;4992905;28;20022;-67
2023/06/21 06:41:35;;;;;;;18.77;12.88;;;;;;;;;;4992907;28;20034;-67
2023/06/21 06:44:01;;;;;;;18.20;14.15;;;;;;;;;;4991385;28;20021;-66
2023/06/21 06:46:26;;;;;;;18.98;13.77;;;;;;;;;;4993141;28;20550;-67
2023/06/21 06:48:51;;;;;;;18.27;14.45;;;;;;;;;;4989912;28;20025;-67
2023/06/21 06:51:16;;;;;;;18.60;13.02;;;;;;;;;;4993850;28;20498;-67
2023/06/21 06:53:42;;;;;;;19.77;15.63;;;;;;;;;;4994039;28;20023;-66
2023/06/21 06:56:07;;;;;;;23.02;15.75;;;;;;;;;;4992728;28;20046;-66
2023/06/21 06:58:35;;;;;;;21.85;15.27;;;;;;;;;;4993344;28;20026;-65
2023/06/21 07:01:00;;;;;;;17.75;14.23;;;;;;;;;;4990364;28;20026;-65
2023/06/21 07:03:26;;;;;;;18.60;15.45;;;;;;;;;;4992311;28;20060;-66
2023/06/21 07:05:51;;;;;;;21.35;17.67;;;;;;;;;;4991836;28;20014;-66
2023/06/21 07:08:17;;;;;;;23.70;19.92;;;;;;;;;;4991704;28;20484;-66
2023/06/21 07:10:42;;;;;;;23.17;20.23;;;;;;;;;;4991451;28;20117;-66
2023/06/21 07:13:08;;;;;;;25.10;20.40;;;;;;;;;;4992535;28;20113;-67
2023/06/21 07:15:33;;;;;;;25.38;21.80;;;;;;;;;;4991073;28;20391;-65
2023/06/21 07:17:59;;;;;;;27.50;22.63;;;;;;;;;;4993511;28;20032;-66
2023/06/21 07:20:24;;;;;;;26.15;21.98;;;;;;;;;;4993450;28;20023;-66
2023/06/21 07:22:49;;;;;;;25.58;22.77;;;;;;;;;;4993788;28;20023;-65
2023/06/21 07:25:15;;;;;;;28.15;22.02;;;;;;;;;;4992794;28;20483;-65
2023/06/21 07:27:40;;;;;;;26.08;23.08;;;;;;;;;;4993565;28;20094;-65
2023/06/21 07:30:06;;;;;;;25.48;21.60;;;;;;;;;;4995716;28;20389;-65
2023/06/21 07:32:33;;;;;;;27.25;23.10;;;;;;;;;;4997402;28;20029;-66
2023/06/21 07:34:58;;;;;;;28.33;23.85;;;;;;;;;;4997769;28;20428;-65
2023/06/21 07:37:24;;;;;;;28.98;25.10;;;;;;;;;;4994373;28;20056;-65
2023/06/21 07:39:49;;;;;;;30.30;26.45;;;;;;;;;;4996528;28;20034;-65
2023/06/21 07:42:15;;;;;;;32.10;27.38;;;;;;;;;;4996080;28;20022;-66
2023/06/21 07:44:40;;;;;;;34.25;26.92;;;;;;;;;;4995451;28;20019;-65
2023/06/21 07:47:05;;;;;;;32.88;27.25;;;;;;;;;;4989454;28;20113;-65
2023/06/21 07:49:31;;;;;;;27.95;24.60;;;;;;;;;;4994663;28;20026;-65
2023/06/21 07:51:56;;;;;;;29.10;24.38;;;;;;;;;;4990263;28;20022;-66
2023/06/21 07:54:21;;;;;;;29.17;23.27;;;;;;;;;;4996661;28;20030;-66
2023/06/21 07:56:46;;;;;;;30.35;25.20;;;;;;;;;;4984118;28;20524;-66
2023/06/21 07:59:12;;;;;;;29.42;22.80;;;;;;;;;;4981887;28;20030;-67
2023/06/21 08:01:37;;;;;;;31.85;26.52;;;;;;;;;;4992749;28;20049;-66
2023/06/21 08:04:03;;;;;;;30.42;25.48;;;;;;;;;;4994397;28;20050;-65
2023/06/21 08:06:28;;;;;;;29.45;23.40;;;;;;;;;;4995890;28;20054;-65
2023/06/21 08:08:54;;;;;;;28.77;24.65;;;;;;;;;;4991986;28;20019;-65
2023/06/21 08:11:19;;;;;;;27.88;23.70;;;;;;;;;;4995283;28;20109;-66
2023/06/21 08:13:44;;;;;;;25.83;22.88;;;;;;;;;;4995768;28;20546;-66
2023/06/21 08:16:10;;;;;;;24.95;20.88;;;;;;;;;;4995215;28;20089;-65
2023/06/21 08:18:35;;;;;;;24.98;21.77;;;;;;;;;;4995840;28;20033;-66
2023/06/21 08:21:01;;;;;;;26.58;21.88;;;;;;;;;;4996753;28;20354;-66
2023/06/21 08:23:26;;;;;;;26.48;23.65;;;;;;;;;;4996502;28;20028;-66
2023/06/21 08:25:51;;;;;;;27.05;23.50;;;;;;;;;;4995668;28;20091;-66
2023/06/21 08:28:16;;;;;;;27.92;23.45;;;;;;;;;;4995638;28;20018;-66
2023/06/21 08:30:42;;;;;;;25.52;22.60;;;;;;;;;;4995094;28;20022;-66
2023/06/21 08:33:07;;;;;;;27.13;23.55;;;;;;;;;;4996597;28;20084;-66
2023/06/21 08:35:32;;;;;;;29.63;25.33;;;;;;;;;;4992930;28;20034;-65
2023/06/21 08:37:58;;;;;;;30.35;26.40;;;;;;;;;;4994753;28;20026;-66
2023/06/21 08:40:27;;;;;;;31.27;25.90;;;;;;;;;;4993549;28;20029;-66
2023/06/21 08:42:53;;;;;;;30.08;24.00;;;;;;;;;;4995155;28;20026;-66
2023/06/21 08:45:19;;;;;;;31.85;26.17;;;;;;;;;;4993722;28;20030;-66
2023/06/21 08:47:45;;;;;;;31.30;24.50;;;;;;;;;;4993312;28;20380;-65
2023/06/21 08:50:13;;;;;;;32.05;26.88;;;;;;;;;;4996254;28;20026;-65
2023/06/21 08:52:39;;;;;;;33.50;27.05;;;;;;;;;;4996237;28;20023;-65
2023/06/21 08:55:06;;;;;;;28.48;25.38;;;;;;;;;;4991757;28;20045;-65
2023/06/21 08:57:34;;;;;;;28.00;24.95;;;;;;;;;;4996244;28;20072;-66
2023/06/21 09:00:00;;;;;;;26.65;23.75;;;;;;;;;;4994012;28;20022;-66
2023/06/21 09:02:40;;;;;;;27.38;23.30;;;;;;;;;;4994822;28;20030;-65
2023/06/21 09:05:08;;;;;;;27.70;24.77;;;;;;;;;;4993793;28;20026;-66
2023/06/21 09:07:35;;;;;;;26.17;22.45;;;;;;;;;;4993818;28;20023;-66
2023/06/21 09:10:02;;;;;;;27.15;24.33;;;;;;;;;;4979110;28;20026;-65
2023/06/21 09:12:29;;;;;;;27.08;20.70;;;;;;;;;;4995248;28;20034;-66
2023/06/21 09:14:55;;;;;;;25.70;22.75;;;;;;;;;;4994388;28;20053;-66
2023/06/21 09:17:21;;;;;;;21.30;18.58;;;;;;;;;;4995122;28;20105;-65
2023/06/21 09:19:47;;;;;;;23.50;20.00;;;;;;;;;;4995470;28;20022;-65
2023/06/21 09:22:13;;;;;;;25.10;22.40;;;;;;;;;;4995669;28;20056;-66
2023/06/21 09:24:39;;;;;;;24.63;22.02;;;;;;;;;;4995520;28;20030;-66
2023/06/21 09:27:04;;;;;;;24.55;21.90;;;;;;;;;;4988041;28;20473;-65
2023/06/21 09:29:29;;;;;;;25.90;23.20;;;;;;;;;;4975970;28;20030;-66
2023/06/21 09:31:56;;;;;;;24.30;21.80;;;;;;;;;;4988403;28;20024;-65
2023/06/21 09:34:21;;;;;;;22.17;19.15;;;;;;;;;;4995532;28;20065;-65
2023/06/21 09:36:46;;;;;;;19.52;17.45;;;;;;;;;;4993386;28;20077;-65
2023/06/21 09:39:12;;;;;;;20.10;18.00;;;;;;;;;;4993515;28;20021;-65
2023/06/21 09:41:38;;;;;;;18.85;16.42;;;;;;;;;;4993033;28;20062;-65
2023/06/21 09:44:03;;;;;;;19.20;16.40;;;;;;;;;;4990139;28;20080;-66
2023/06/21 09:46:29;;;;;;;18.27;16.38;;;;;;;;;;4989869;28;20014;-65
2023/06/21 09:48:57;;;;;;;20.13;17.88;;;;;;;;;;4994662;28;20026;-65
2023/06/21 09:51:23;;;;;;;20.48;18.10;;;;;;;;;;4993106;28;20072;-65
2023/06/21 09:53:52;;;;;;;21.45;19.15;;;;;;;;;;4994033;28;20022;-66
2023/06/21 09:56:18;;;;;;;19.95;17.65;;;;;;;;;;4993966;28;20026;-65
2023/06/21 09:58:43;;;;;;;20.10;16.38;;;;;;;;;;4990550;28;20493;-65
2023/06/21 10:01:12;;;;;;;20.90;18.70;;;;;;;;;;4991175;28;20069;-65
2023/06/21 10:03:38;;;;;;;19.38;17.30;;;;;;;;;;4988924;28;20075;-65
2023/06/21 10:06:03;;;;;;;16.35;14.23;;;;;;;;;;4994018;28;20469;-65
2023/06/21 10:08:31;;;;;;;17.30;15.60;;;;;;;;;;4994526;28;20150;-65
2023/06/21 10:10:57;;;;;;;18.27;16.27;;;;;;;;;;4993686;28;20037;-65
2023/06/21 10:13:29;;;;;;;18.98;16.98;;;;;;;;;;4993383;28;20476;-65
2023/06/21 10:15:55;;;;;;;18.00;16.10;;;;;;;;;;4994287;28;20101;-65
2023/06/21 10:18:20;;;;;;;20.63;18.05;;;;;;;;;;4993597;28;20392;-66
2023/06/21 10:20:49;;;;;;;19.10;17.10;;;;;;;;;;4991583;28;20038;-65
2023/06/21 10:23:15;;;;;;;18.17;16.27;;;;;;;;;;4990218;28;20113;-65
2023/06/21 10:25:42;;;;;;;18.08;14.90;;;;;;;;;;4993552;28;20484;-66
2023/06/21 10:28:08;;;;;;;18.83;16.88;;;;;;;;;;4993098;28;20035;-66
2023/06/21 10:30:35;;;;;;;19.02;17.23;;;;;;;;;;4992081;28;20396;-65
2023/06/21 10:33:01;;;;;;;18.30;16.50;;;;;;;;;;4994014;28;20069;-65
2023/06/21 10:35:27;;;;;;;17.55;15.82;;;;;;;;;;4994114;28;20068;-65
2023/06/21 10:38:09;;;;;;;17.88;16.08;;;;;;;;;;4994267;28;20436;-65
2023/06/21 10:40:35;;;;;;;15.45;11.80;;;;;;;;;;4992195;28;20463;-65
2023/06/21 10:43:01;;;;;;;14.20;12.00;;;;;;;;;;4991766;28;20015;-66
2023/06/21 10:45:28;;;;;;;14.10;11.35;;;;;;;;;;4993331;28;20042;-66
2023/06/21 10:47:56;;;;;;;14.13;12.60;;;;;;;;;;4992365;28;20101;-66
2023/06/21 10:50:22;;;;;;;13.93;12.52;;;;;;;;;;4994190;28;20010;-65
2023/06/21 10:52:52;;;;;;;17.88;13.25;;;;;;;;;;4992048;28;20072;-66
2023/06/21 10:55:19;;;;;;;13.80;12.43;;;;;;;;;;4990071;28;20026;-65
2023/06/21 10:57:45;;;;;;;12.07;10.88;;;;;;;;;;4994141;28;20065;-66
2023/06/21 11:00:11;;;;;;;12.85;10.48;;;;;;;;;;4993982;28;20499;-66
2023/06/21 11:02:37;;;;;;;11.88;10.68;;;;;;;;;;4987701;28;20049;-65
2023/06/21 11:05:18;;;;;;;12.35;10.52;;;;;;;;;;4993646;28;20029;-66
2023/06/21 11:08:00;;;;;;;12.10;10.85;;;;;;;;;;4993087;28;20018;-66
2023/06/21 11:10:46;;;;;;;13.40;11.52;;;;;;;;;;4992696;28;20030;-66
2023/06/21 11:13:12;;;;;;;12.43;11.07;;;;;;;;;;4993545;28;20027;-66
2023/06/21 11:15:39;;;;;;;12.05;10.75;;;;;;;;;;4993540;28;20142;-66
2023/06/21 11:18:08;;;;;;;12.60;11.30;;;;;;;;;;4992272;28;20413;-66
2023/06/21 11:20:46;;;;;;;12.40;11.05;;;;;;;;;;4992787;28;20072;-66
2023/06/21 11:23:14;;;;;;;11.85;9.75;;;;;;;;;;4990955;28;20019;-66
2023/06/21 11:25:48;;;;;;;11.55;9.85;;;;;;;;;;4991465;28;20031;-66
2023/06/21 11:28:23;;;;;;;11.98;8.63;;;;;;;;;;4991160;28;20025;-66
2023/06/21 11:31:21;;;;;;;8.95;7.70;;;;;;;;;;4993371;28;20026;-66
2023/06/21 11:33:53;;;;;;;10.73;8.82;;;;;;;;;;4931194;28;20041;-67
2023/06/21 11:36:21;;;;;;;11.00;8.82;;;;;;;;;;4974275;28;20400;-66
2023/06/21 11:39:10;;;;;;;11.82;9.18;;;;;;;;;;4987051;28;20100;-66
2023/06/21 11:41:55;;;;;;;10.57;9.43;;;;;;;;;;4981160;28;20476;-66
2023/06/21 11:44:21;;;;;;;10.88;9.70;;;;;;;;;;4993114;28;20388;-67
2023/06/21 11:46:47;;;;;;;13.02;9.52;;;;;;;;;;4989095;28;20022;-67
2023/06/21 11:49:12;;;;;;;10.02;8.00;;;;;;;;;;4991602;28;20041;-66
2023/06/21 11:51:56;;;;;;;9.00;6.90;;;;;;;;;;4989907;28;20018;-67
2023/06/21 11:54:34;;;;;;;7.97;6.70;;;;;;;;;;4985975;28;20323;-66
2023/06/21 11:57:02;;;;;;;11.73;6.50;;;;;;;;;;4988900;28;20379;-67
2023/06/21 11:59:28;;;;;;;7.10;5.32;;;;;;;;;;4991879;28;20492;-67
2023/06/21 12:01:53;;;;;;;7.28;5.70;;;;;;;;;;4987917;28;20018;-67
2023/06/21 12:04:25;;;;;;;7.85;5.97;;;;;;;;;;4992900;28;20069;-67
2023/06/21 12:06:51;;;;;;;7.25;5.90;;;;;;;;;;4992109;28;20026;-67
2023/06/21 12:09:16;;;;;;;9.23;6.50;;;;;;;;;;4991997;28;20023;-66
2023/06/21 12:11:41;;;;;;;7.55;5.80;;;;;;;;;;4993316;28;20018;-67
2023/06/21 12:14:08;;;;;;;8.25;5.15;;;;;;;;;;4990214;28;20027;-68
2023/06/21 12:16:34;;;;;;;6.95;5.03;;;;;;;;;;4995039;28;20033;-68
2023/06/21 12:19:00;;;;;;;8.70;5.47;;;;;;;;;;4996979;28;20026;-67
2023/06/21 12:21:25;;;;;;;9.52;6.55;;;;;;;;;;4996559;28;20472;-67
2023/06/21 12:23:57;;;;;;;6.90;5.57;;;;;;;;;;4994923;28;20022;-68
2023/06/21 12:26:26;;;;;;;6.60;5.75;;;;;;;;;;4996763;28;20026;-68
2023/06/21 12:28:51;;;;;;;7.80;4.53;;;;;;;;;;4996769;28;20018;-67
2023/06/21 12:31:18;;;;;;;6.28;4.90;;;;;;;;;;4995844;28;20053;-68
2023/06/21 12:33:43;;;;;;;7.38;5.90;;;;;;;;;;4995593;28;20023;-68
2023/06/21 12:36:25;;;;;;;7.93;5.60;;;;;;;;;;4996602;28;20031;-68
2023/06/21 12:38:57;;;;;;;6.95;5.05;;;;;;;;;;4995223;28;20054;-68
2023/06/21 12:41:24;;;;;;;7.72;5.50;;;;;;;;;;4994788;28;20026;-68
2023/06/21 12:43:50;;;;;;;8.43;5.80;;;;;;;;;;4996145;28;20049;-68
2023/06/21 12:46:16;;;;;;;6.80;5.30;;;;;;;;;;4995105;28;20076;-68
2023/06/21 12:48:43;;;;;;;7.97;5.65;;;;;;;;;;4996070;28;20018;-68
2023/06/21 12:51:08;;;;;;;9.52;5.93;;;;;;;;;;4995233;28;20484;-68
2023/06/21 12:53:38;;;;;;;7.47;5.63;;;;;;;;;;4995190;28;20117;-68
2023/06/21 12:56:10;;;;;;;7.77;6.17;;;;;;;;;;4987376;28;20027;-68
2023/06/21 12:58:36;;;;;;;9.05;6.53;;;;;;;;;;4976792;28;20289;-68
2023/06/21 13:01:02;;;;;;;7.55;5.68;;;;;;;;;;4985135;28;20034;-68
2023/06/21 13:03:28;;;;;;;7.68;6.03;;;;;;;;;;4994015;28;20054;-68
2023/06/21 13:05:53;;;;;;;7.57;6.30;;;;;;;;;;4994171;28;20094;-68
2023/06/21 13:08:18;;;;;;;8.43;6.43;;;;;;;;;;4995058;28;20468;-69
2023/06/21 13:10:44;;;;;;;6.82;5.40;;;;;;;;;;4995956;28;20030;-69
2023/06/21 13:13:09;;;;;;;11.60;5.55;;;;;;;;;;4995954;28;20018;-69
2023/06/21 13:15:34;;;;;;;9.95;6.53;;;;;;;;;;4995098;28;20015;-69
2023/06/21 13:17:59;;;;;;;7.88;5.97;;;;;;;;;;4993626;28;20026;-68
2023/06/21 13:20:25;;;;;;;7.80;6.20;;;;;;;;;;4995806;28;20092;-69
2023/06/21 13:22:50;;;;;;;8.27;6.40;;;;;;;;;;4993264;28;20077;-69
2023/06/21 13:25:16;;;;;;;7.88;6.18;;;;;;;;;;4995680;28;20041;-70
2023/06/21 13:27:41;;;;;;;7.35;6.03;;;;;;;;;;4995312;28;20069;-70
2023/06/21 13:30:07;;;;;;;7.97;5.63;;;;;;;;;;4993688;28;20031;-72
2023/06/21 13:32:32;;;;;;;7.68;6.00;;;;;;;;;;4993240;28;20033;-71
2023/06/21 13:34:58;;;;;;;7.70;5.68;;;;;;;;;;4977782;28;20487;-70
2023/06/21 13:37:23;;;;;;;10.05;5.38;;;;;;;;;;4994241;28;20030;-70
2023/06/21 13:39:48;;;;;;;7.32;5.32;;;;;;;;;;4994785;28;20022;-70
2023/06/21 13:42:13;;;;;;;7.05;4.97;;;;;;;;;;4994273;28;20028;-71
2023/06/21 13:44:39;;;;;;;6.05;3.80;;;;;;;;;;4993282;28;20383;-71
2023/06/21 13:47:04;;;;;;;6.18;4.10;;;;;;;;;;4993173;28;20015;-70
2023/06/21 13:49:29;;;;;;;5.78;4.18;;;;;;;;;;4984330;28;20057;-71
2023/06/21 13:51:55;;;;;;;5.93;3.80;;;;;;;;;;4983695;28;20477;-71
2023/06/21 13:54:20;;;;;;;6.65;3.78;;;;;;;;;;4991102;28;20057;-72
2023/06/21 13:56:46;;;;;;;10.88;3.78;;;;;;;;;;4986272;28;20030;-71
2023/06/21 13:59:11;;;;;;;8.13;3.70;;;;;;;;;;4985474;28;20026;-71
2023/06/21 14:01:36;;;;;;;5.70;3.50;;;;;;;;;;4993937;28;20077;-72
2023/06/21 14:04:02;;;;;;;7.30;3.47;;;;;;;;;;4994689;28;20054;-72
2023/06/21 14:06:28;;;;;;;5.07;3.45;;;;;;;;;;4993691;28;20018;-73
2023/06/21 14:08:53;;;;;;;5.57;3.38;;;;;;;;;;4988358;28;20034;-74
2023/06/21 14:11:18;;;;;;;5.60;3.40;;;;;;;;;;4992810;28;20026;-73
2023/06/21 14:13:44;;;;;;;5.40;3.50;;;;;;;;;;4994541;28;20065;-75
2023/06/21 14:16:09;;;;;;;6.38;3.80;;;;;;;;;;4994428;28;20014;-74
2023/06/21 14:18:34;;;;;;;5.50;3.65;;;;;;;;;;4993438;28;20435;-74
2023/06/21 14:21:00;;;;;;;6.20;3.90;;;;;;;;;;4993618;28;20412;-73
2023/06/21 14:23:25;;;;;;;5.57;3.60;;;;;;;;;;4993628;28;20026;-75
2023/06/21 14:25:50;;;;;;;5.43;3.60;;;;;;;;;;4994519;28;20097;-71
2023/06/21 14:28:16;;;;;;;6.70;4.75;;;;;;;;;;4994486;28;20025;-72